createdAt,value
2019-01-10T00:04:19.983Z,100763.00
2019-01-10T00:06:48.787Z,100780.00
2019-01-10T00:09:16.707Z,100768.00
2019-01-10T00:12:04.063Z,100613.00
2019-01-10T00:14:44.575Z,100499.00
2019-01-10T00:17:32.030Z,100786.00
2019-01-10T00:20:12.391Z,100607.00
2019-01-10T00:22:59.812Z,100545.00
2019-01-10T00:25:40.443Z,100673.00
2019-01-10T00:28:27.941Z,100575.00
2019-01-10T00:31:08.739Z,100805.00
2019-01-10T00:33:49.091Z,100597.00
2019-01-10T00:36:36.679Z,100811.00
2019-01-10T00:39:18.058Z,100799.00
2019-01-10T00:42:05.509Z,100623.00
2019-01-10T00:44:33.754Z,100825.00
2019-01-10T00:47:15.454Z,100818.00
2019-01-10T00:49:57.083Z,100824.00
2019-01-10T00:52:44.509Z,100963.00
2019-01-10T00:55:25.105Z,100574.00
2019-01-10T00:58:13.096Z,100545.00
2019-01-10T01:00:54.224Z,100843.00
2019-01-10T01:03:22.353Z,100844.00
2019-01-10T01:05:50.294Z,100847.00
2019-01-10T01:08:31.293Z,100845.00
2019-01-10T01:11:18.679Z,100666.00
2019-01-10T01:13:46.629Z,100846.00
2019-01-10T01:16:34.227Z,100651.00
2019-01-10T01:19:14.817Z,100856.00
2019-01-10T01:22:02.253Z,100913.00
2019-01-10T01:24:43.298Z,100564.00
2019-01-10T01:27:24.273Z,100860.00
2019-01-10T01:30:14.160Z,100908.00
2019-01-10T01:32:42.126Z,100865.00
2019-01-10T01:35:29.705Z,100629.00
2019-01-10T01:38:11.495Z,100866.00
2019-01-10T01:40:39.431Z,100872.00
2019-01-10T01:43:20.104Z,100870.00
2019-01-10T01:45:47.988Z,100876.00
2019-01-10T01:48:15.946Z,100877.00
2019-01-10T01:50:43.801Z,100884.00
2019-01-10T01:53:11.728Z,100875.00
2019-01-10T01:55:39.600Z,100888.00
2019-01-10T01:58:07.507Z,100888.00
2019-01-10T02:00:35.674Z,100901.00
2019-01-10T02:03:17.060Z,100690.00
2019-01-10T02:06:04.411Z,100910.00
2019-01-10T02:08:44.931Z,100911.00
2019-01-10T02:11:32.278Z,101017.00
2019-01-10T02:14:13.180Z,100965.00
2019-01-10T02:17:00.606Z,100913.00
2019-01-10T02:19:44.611Z,100927.00
2019-01-10T02:22:32.404Z,100861.00
2019-01-10T02:25:13.389Z,100916.00
2019-01-10T02:28:01.118Z,100855.00
2019-01-10T02:30:42.076Z,100839.00
2019-01-10T02:33:10.296Z,100932.00
2019-01-10T02:35:38.203Z,100924.00
2019-01-10T02:38:26.460Z,100926.00
2019-01-10T02:41:07.086Z,100934.00
2019-01-10T02:43:54.497Z,100931.00
2019-01-10T02:46:34.689Z,100943.00
2019-01-10T02:49:15.558Z,100947.00
2019-01-10T02:52:03.479Z,100944.00
2019-01-10T02:54:44.107Z,100942.00
2019-01-10T02:57:32.453Z,100945.00
2019-01-10T03:00:00.382Z,100947.00
2019-01-10T03:02:28.355Z,100946.00
2019-01-10T03:04:56.392Z,100940.00
2019-01-10T03:07:24.340Z,100950.00
2019-01-10T03:10:07.241Z,100851.00
2019-01-10T03:12:54.595Z,100694.00
2019-01-10T03:15:34.945Z,100951.00
2019-01-10T03:18:22.512Z,100729.00
2019-01-10T03:20:52.621Z,100943.00
2019-01-10T03:23:40.046Z,100943.00
2019-01-10T03:26:20.150Z,100939.00
2019-01-10T03:28:48.032Z,100940.00
2019-01-10T03:31:35.406Z,100823.00
2019-01-10T03:34:16.488Z,100937.00
2019-01-10T03:36:57.253Z,100932.00
2019-01-10T03:39:37.338Z,100938.00
2019-01-10T03:42:24.833Z,100927.00
2019-01-10T03:45:06.718Z,100937.00
2019-01-10T03:47:34.700Z,100926.00
2019-01-10T03:50:15.988Z,100937.00
2019-01-10T03:53:03.347Z,100932.00
2019-01-10T03:55:44.189Z,100940.00
2019-01-10T03:58:31.573Z,100760.00
2019-01-10T04:01:11.827Z,100940.00
2019-01-10T04:03:59.179Z,100763.00
2019-01-10T04:06:27.108Z,100942.00
2019-01-10T04:08:54.997Z,100933.00
2019-01-10T04:11:35.169Z,100939.00
2019-01-10T04:14:22.755Z,100922.00
2019-01-10T04:17:03.450Z,100937.00
2019-01-10T04:19:50.832Z,100952.00
2019-01-10T04:22:18.846Z,100938.00
2019-01-10T04:24:46.846Z,100945.00
2019-01-10T04:27:27.270Z,101065.00
2019-01-10T04:30:10.600Z,100962.00
2019-01-10T04:32:51.538Z,100945.00
2019-01-10T04:35:32.766Z,100752.00
2019-01-10T04:38:21.029Z,100732.00
2019-01-10T04:41:04.125Z,100957.00
2019-01-10T04:43:51.567Z,100970.00
2019-01-10T04:46:32.526Z,100967.00
2019-01-10T04:49:00.450Z,100968.00
2019-01-10T04:51:28.471Z,100984.00
2019-01-10T04:54:16.377Z,100975.00
2019-01-10T04:56:44.257Z,100982.00
2019-01-10T04:59:12.369Z,100981.00
2019-01-10T05:01:53.319Z,100974.00
2019-01-10T05:04:21.265Z,100978.00
2019-01-10T05:06:49.383Z,100983.00
2019-01-10T05:09:17.221Z,100989.00
2019-01-10T05:11:45.120Z,100992.00
2019-01-10T05:14:16.651Z,100990.00
2019-01-10T05:16:56.924Z,100988.00
2019-01-10T05:19:24.814Z,100996.00
2019-01-10T05:21:52.773Z,100997.00
2019-01-10T05:24:20.594Z,100997.00
2019-01-10T05:26:48.570Z,101008.00
2019-01-10T05:29:16.649Z,101010.00
2019-01-10T05:31:44.495Z,101007.00
2019-01-10T05:34:12.402Z,101002.00
2019-01-10T05:37:00.060Z,100787.00
2019-01-10T05:39:47.464Z,101007.00
2019-01-10T05:42:31.352Z,100795.00
2019-01-10T05:45:12.103Z,101009.00
2019-01-10T05:48:00.528Z,100934.00
2019-01-10T05:50:40.911Z,101100.00
2019-01-10T05:53:08.827Z,101022.00
2019-01-10T05:55:36.831Z,101026.00
2019-01-10T05:58:04.750Z,101026.00
2019-01-10T06:00:47.262Z,101012.00
2019-01-10T06:03:15.311Z,101018.00
2019-01-10T06:05:43.276Z,101028.00
2019-01-10T06:08:30.831Z,100732.00
2019-01-10T06:11:11.180Z,100823.00
2019-01-10T06:13:58.560Z,101037.00
2019-01-10T06:16:37.592Z,101043.00
2019-01-10T06:19:26.872Z,101036.00
2019-01-10T06:22:13.613Z,101056.00
2019-01-10T06:24:41.631Z,101029.00
2019-01-10T06:27:22.365Z,101091.00
2019-01-10T06:29:50.378Z,101046.00
2019-01-10T06:32:18.287Z,101042.00
2019-01-10T06:34:46.243Z,101051.00
2019-01-10T06:37:33.615Z,101051.00
2019-01-10T06:40:14.865Z,101126.00
2019-01-10T06:43:02.268Z,100908.00
2019-01-10T06:45:42.509Z,101077.00
2019-01-10T06:48:10.408Z,101063.00
2019-01-10T06:50:50.565Z,100832.00
2019-01-10T06:53:18.503Z,101074.00
2019-01-10T06:55:59.046Z,100991.00
2019-01-10T06:58:27.006Z,101080.00
2019-01-10T07:00:54.906Z,101072.00
2019-01-10T07:03:22.873Z,101080.00
2019-01-10T07:05:50.994Z,101076.00
2019-01-10T07:08:33.907Z,100795.00
2019-01-10T07:11:21.333Z,100885.00
2019-01-10T07:14:02.413Z,100862.00
2019-01-10T07:16:43.004Z,101023.00
2019-01-10T07:19:49.992Z,101101.00
2019-01-10T07:22:30.012Z,100880.00
2019-01-10T07:25:17.616Z,100953.00
2019-01-10T07:28:02.927Z,100855.00
2019-01-10T07:30:50.835Z,101226.00
2019-01-10T07:33:32.298Z,100888.00
2019-01-10T07:36:20.154Z,100872.00
2019-01-10T07:39:01.249Z,101137.00
2019-01-10T07:41:29.313Z,101131.00
2019-01-10T07:44:38.268Z,100862.00
2019-01-10T07:47:08.198Z,101137.00
2019-01-10T07:49:57.557Z,101132.00
2019-01-10T07:52:25.535Z,101140.00
2019-01-10T07:55:13.276Z,101138.00
2019-01-10T07:57:41.294Z,101147.00
2019-01-10T08:00:09.594Z,101149.00
2019-01-10T08:02:51.151Z,100900.00
2019-01-10T08:05:38.628Z,101154.00
2019-01-10T08:08:19.054Z,101168.00
2019-01-10T08:10:46.978Z,101159.00
2019-01-10T08:13:15.068Z,101165.00
2019-01-10T08:16:03.240Z,100973.00
2019-01-10T08:18:44.243Z,101173.00
2019-01-10T08:21:24.222Z,101180.00
2019-01-10T08:24:04.845Z,101334.00
2019-01-10T08:26:52.365Z,100946.00
2019-01-10T08:29:33.594Z,100944.00
2019-01-10T08:32:21.146Z,101185.00
2019-01-10T08:35:01.635Z,101207.00
2019-01-10T08:37:49.068Z,100999.00
2019-01-10T08:40:29.501Z,100937.00
2019-01-10T08:43:17.021Z,100884.00
2019-01-10T08:45:44.967Z,101200.00
2019-01-10T08:48:33.184Z,101198.00
2019-01-10T08:51:13.880Z,101197.00
2019-01-10T08:53:42.095Z,101199.00
2019-01-10T08:56:22.659Z,100950.00
2019-01-10T08:58:50.646Z,101212.00
2019-01-10T09:01:18.582Z,101207.00
2019-01-10T09:03:46.586Z,101203.00
2019-01-10T09:06:14.624Z,101211.00
2019-01-10T09:08:56.696Z,100939.00
2019-01-10T09:11:44.111Z,101215.00
2019-01-10T09:14:25.783Z,101216.00
2019-01-10T09:16:53.808Z,101208.00
2019-01-10T09:19:21.826Z,101214.00
2019-01-10T09:22:09.274Z,101209.00
2019-01-10T09:24:56.729Z,100931.00
2019-01-10T09:27:37.863Z,100993.00
2019-01-10T09:30:19.612Z,101222.00
2019-01-10T09:33:01.339Z,101249.00
2019-01-10T09:35:29.361Z,101214.00
2019-01-10T09:37:57.337Z,101223.00
2019-01-10T09:40:25.404Z,101222.00
2019-01-10T09:42:53.391Z,101211.00
2019-01-10T09:45:43.502Z,101117.00
2019-01-10T09:48:24.588Z,101226.00
2019-01-10T09:51:12.016Z,101014.00
2019-01-10T09:53:55.798Z,101158.00
2019-01-10T09:56:43.443Z,100994.00
2019-01-10T09:59:24.145Z,101235.00
2019-01-10T10:02:11.599Z,101231.00
2019-01-10T10:04:52.296Z,101255.00
2019-01-10T10:07:40.017Z,100950.00
2019-01-10T10:10:20.784Z,101005.00
2019-01-10T10:13:08.303Z,100974.00
2019-01-10T10:15:52.624Z,100936.00
2019-01-10T10:18:39.795Z,101250.00
2019-01-10T10:21:20.568Z,101274.00
2019-01-10T10:23:48.825Z,101263.00
2019-01-10T10:26:29.958Z,101253.00
2019-01-10T10:28:57.976Z,101243.00
2019-01-10T10:31:45.556Z,101313.00
2019-01-10T10:34:26.036Z,100988.00
2019-01-10T10:37:13.523Z,101173.00
2019-01-10T10:39:54.819Z,101014.00
2019-01-10T10:42:42.456Z,101247.00
2019-01-10T10:45:22.868Z,101245.00
2019-01-10T10:48:13.565Z,101328.00
2019-01-10T10:50:59.478Z,101005.00
2019-01-10T10:53:49.519Z,101252.00
2019-01-10T10:56:30.827Z,101242.00
2019-01-10T10:59:11.226Z,100887.00
2019-01-10T11:01:58.713Z,101154.00
2019-01-10T11:04:26.763Z,101253.00
2019-01-10T11:06:54.783Z,101243.00
2019-01-10T11:09:22.827Z,101243.00
2019-01-10T11:12:04.827Z,101248.00
2019-01-10T11:14:52.764Z,101251.00
2019-01-10T11:17:32.948Z,101205.00
2019-01-10T11:20:21.932Z,101012.00
2019-01-10T11:22:50.085Z,101237.00
2019-01-10T11:25:23.059Z,101242.00
2019-01-10T11:27:51.056Z,101248.00
2019-01-10T11:30:31.828Z,101035.00
2019-01-10T11:33:19.185Z,101128.00
2019-01-10T11:35:59.899Z,100996.00
2019-01-10T11:38:47.436Z,101238.00
2019-01-10T11:41:27.686Z,101242.00
2019-01-10T11:44:07.890Z,101010.00
2019-01-10T11:46:35.858Z,101248.00
2019-01-10T11:49:03.857Z,101239.00
2019-01-10T11:51:51.379Z,101006.00
2019-01-10T11:54:32.764Z,101158.00
2019-01-10T11:57:00.758Z,101241.00
2019-01-10T11:59:29.556Z,101241.00
2019-01-10T12:02:17.213Z,101246.00
2019-01-10T12:04:45.164Z,101243.00
2019-01-10T12:07:32.557Z,101247.00
2019-01-10T12:10:00.726Z,101245.00
2019-01-10T12:12:28.667Z,101235.00
2019-01-10T12:15:09.436Z,101249.00
2019-01-10T12:17:57.075Z,101236.00
2019-01-10T12:20:25.099Z,101252.00
2019-01-10T12:22:53.059Z,101238.00
2019-01-10T12:25:34.869Z,101246.00
2019-01-10T12:28:22.541Z,101244.00
2019-01-10T12:31:03.198Z,101007.00
2019-01-10T12:33:50.905Z,100874.00
2019-01-10T12:36:19.729Z,101238.00
2019-01-10T12:39:07.449Z,101233.00
2019-01-10T12:41:35.496Z,101237.00
2019-01-10T12:44:23.084Z,100974.00
2019-01-10T12:47:03.516Z,101237.00
2019-01-10T12:49:50.981Z,101229.00
2019-01-10T12:52:35.230Z,101236.00
2019-01-10T12:55:21.172Z,101101.00
2019-01-10T12:57:49.123Z,101238.00
2019-01-10T13:00:36.732Z,100946.00
2019-01-10T13:03:16.793Z,100884.00
2019-01-10T13:06:04.371Z,101119.00
2019-01-10T13:08:32.410Z,101238.00
2019-01-10T13:11:22.057Z,101028.00
2019-01-10T13:14:05.522Z,101021.00
2019-01-10T13:16:51.477Z,100954.00
2019-01-10T13:19:33.252Z,101238.00
2019-01-10T13:22:13.911Z,101256.00
2019-01-10T13:24:54.078Z,101062.00
2019-01-10T13:27:41.497Z,101017.00
2019-01-10T13:30:23.197Z,101254.00
2019-01-10T13:33:10.916Z,101259.00
2019-01-10T13:35:51.802Z,101319.00
2019-01-10T13:38:39.413Z,101063.00
2019-01-10T13:41:20.177Z,101256.00
2019-01-10T13:43:48.134Z,101260.00
2019-01-10T13:46:16.183Z,101256.00
2019-01-10T13:48:44.300Z,101253.00
2019-01-10T13:51:13.273Z,101260.00
2019-01-10T13:53:41.347Z,101262.00
2019-01-10T13:56:22.735Z,101251.00
2019-01-10T13:58:50.723Z,101259.00
2019-01-10T14:01:31.670Z,101272.00
2019-01-10T14:04:19.333Z,101264.00
2019-01-10T14:07:00.280Z,101255.00
2019-01-10T14:09:28.388Z,101268.00
2019-01-10T14:12:09.477Z,101041.00
2019-01-10T14:14:37.614Z,101265.00
2019-01-10T14:17:18.496Z,101265.00
2019-01-10T14:20:06.451Z,101274.00
2019-01-10T14:22:47.308Z,101034.00
2019-01-10T14:25:16.176Z,101291.00
2019-01-10T14:28:00.235Z,101034.00
2019-01-10T14:30:46.714Z,101279.00
2019-01-10T14:33:14.807Z,101281.00
2019-01-10T14:35:42.874Z,101294.00
2019-01-10T14:38:24.283Z,101292.00
2019-01-10T14:41:11.928Z,101079.00
2019-01-10T14:43:40.104Z,101293.00
2019-01-10T14:46:27.646Z,101104.00
2019-01-10T14:48:55.581Z,101296.00
2019-01-10T14:51:23.756Z,101298.00
2019-01-10T14:53:51.719Z,101290.00
2019-01-10T14:56:21.718Z,101298.00
2019-01-10T14:59:03.903Z,101297.00
2019-01-10T15:01:32.342Z,101290.00
2019-01-10T15:04:00.364Z,101292.00
2019-01-10T15:06:28.390Z,101300.00
2019-01-10T15:08:56.484Z,101296.00
2019-01-10T15:11:24.584Z,101308.00
2019-01-10T15:14:07.220Z,101307.00
2019-01-10T15:16:35.211Z,101317.00
2019-01-10T15:19:15.872Z,101139.00
2019-01-10T15:22:04.592Z,101388.00
2019-01-10T15:24:32.602Z,101326.00
2019-01-10T15:27:00.701Z,101325.00
2019-01-10T15:29:28.619Z,101330.00
2019-01-10T15:32:16.299Z,101070.00
2019-01-10T15:34:56.486Z,101224.00
2019-01-10T15:37:24.476Z,101334.00
2019-01-10T15:39:52.767Z,101335.00
2019-01-10T15:42:21.166Z,101331.00
2019-01-10T15:44:49.517Z,101334.00
2019-01-10T15:47:19.870Z,101343.00
2019-01-10T15:49:47.571Z,101342.00
2019-01-10T15:52:15.743Z,101337.00
2019-01-10T15:55:03.955Z,101339.00
2019-01-10T15:57:32.108Z,101345.00
2019-01-10T16:00:21.181Z,101340.00
2019-01-10T16:03:01.840Z,101278.00
2019-01-10T16:05:49.415Z,101076.00
2019-01-10T16:08:30.806Z,101351.00
2019-01-10T16:10:58.704Z,101345.00
2019-01-10T16:13:41.214Z,101147.00
2019-01-10T16:16:29.011Z,101285.00
2019-01-10T16:19:13.131Z,101388.00
2019-01-10T16:21:54.269Z,101191.00
2019-01-10T16:24:35.736Z,101180.00
2019-01-10T16:27:23.678Z,101185.00
2019-01-10T16:30:05.965Z,101263.00
2019-01-10T16:32:53.579Z,101212.00
2019-01-10T16:35:35.642Z,101383.00
2019-01-10T16:38:17.009Z,101030.00
2019-01-10T16:41:04.406Z,101382.00
2019-01-10T16:43:45.053Z,101087.00
2019-01-10T16:46:32.514Z,101380.00
2019-01-10T16:49:12.988Z,101126.00
2019-01-10T16:52:00.661Z,101375.00
2019-01-10T16:54:40.989Z,101375.00
2019-01-10T16:57:28.467Z,101376.00
2019-01-10T17:00:13.028Z,101335.00
2019-01-10T17:03:00.716Z,101429.00
2019-01-10T17:05:41.220Z,101376.00
2019-01-10T17:08:29.023Z,101166.00
2019-01-10T17:11:09.444Z,101379.00
2019-01-10T17:13:56.952Z,101190.00
2019-01-10T17:16:38.412Z,101180.00
2019-01-10T17:19:26.228Z,101387.00
2019-01-10T17:22:07.301Z,101382.00
2019-01-10T17:24:35.720Z,101369.00
2019-01-10T17:27:03.741Z,101370.00
2019-01-10T17:29:31.966Z,101371.00
2019-01-10T17:32:00.378Z,101365.00
2019-01-10T17:34:28.792Z,101361.00
2019-01-10T17:37:16.271Z,101370.00
2019-01-10T17:39:56.671Z,101164.00
2019-01-10T17:49:03.313Z,101384.00
2019-01-10T17:51:50.958Z,101375.00
2019-01-10T17:54:31.191Z,101375.00
2019-01-10T17:57:18.654Z,101115.00
2019-01-10T17:59:59.486Z,101181.00
2019-01-10T18:02:47.220Z,101168.00
2019-01-10T18:05:28.312Z,101395.00
2019-01-10T18:08:35.617Z,101182.00
2019-01-10T18:11:17.143Z,101317.00
2019-01-10T18:14:04.772Z,101381.00
2019-01-10T18:16:45.287Z,101408.00
2019-01-10T18:19:33.180Z,101283.00
2019-01-10T18:22:16.118Z,101407.00
2019-01-10T18:24:44.391Z,101393.00
2019-01-10T18:27:31.956Z,101397.00
2019-01-10T18:30:04.045Z,101406.00
2019-01-10T18:32:32.388Z,101408.00
2019-01-10T18:35:13.872Z,101416.00
2019-01-10T18:37:58.487Z,101401.00
2019-01-10T18:40:46.114Z,101402.00
2019-01-10T18:43:27.203Z,101413.00
2019-01-10T18:45:55.198Z,101421.00
2019-01-10T18:48:23.332Z,101421.00
2019-01-10T18:51:10.797Z,101292.00
2019-01-10T18:53:52.202Z,101126.00
2019-01-10T18:56:39.933Z,101420.00
2019-01-10T18:59:20.807Z,101418.00
2019-01-10T19:02:08.428Z,101082.00
2019-01-10T19:04:49.499Z,101192.00
2019-01-10T19:07:36.941Z,101400.00
2019-01-10T19:10:18.198Z,101401.00
2019-01-10T19:13:05.981Z,101409.00
2019-01-10T19:15:47.078Z,101407.00
2019-01-10T19:18:34.667Z,101301.00
2019-01-10T19:21:14.791Z,101408.00
2019-01-10T19:23:55.206Z,101492.00
2019-01-10T19:26:43.194Z,101168.00
2019-01-10T19:29:23.381Z,101358.00
2019-01-10T19:32:03.637Z,101176.00
2019-01-10T19:34:44.769Z,101406.00
2019-01-10T19:37:32.296Z,101485.00
2019-01-10T19:40:01.060Z,101407.00
2019-01-10T19:42:49.243Z,101240.00
2019-01-10T19:45:29.563Z,101308.00
2019-01-10T19:48:17.212Z,101410.00
2019-01-10T19:50:57.375Z,101440.00
2019-01-10T19:53:45.161Z,101520.00
2019-01-10T19:56:25.678Z,101171.00
2019-01-10T19:59:13.418Z,101416.00
2019-01-10T20:01:54.423Z,101228.00
2019-01-10T20:04:23.495Z,101418.00
2019-01-10T20:06:51.657Z,101418.00
2019-01-10T20:09:39.263Z,101330.00
2019-01-10T20:12:19.520Z,101216.00
2019-01-10T20:15:07.279Z,101442.00
2019-01-10T20:17:35.626Z,101445.00
2019-01-10T20:20:21.426Z,101289.00
2019-01-10T20:23:06.293Z,101430.00
2019-01-10T20:25:46.740Z,101435.00
2019-01-10T20:28:34.517Z,101210.00
2019-01-10T20:31:15.083Z,101186.00
2019-01-10T20:34:02.835Z,101442.00
2019-01-10T20:36:43.738Z,101437.00
2019-01-10T20:39:25.059Z,101314.00
2019-01-10T20:44:48.928Z,101445.00
2019-01-10T20:47:29.719Z,101567.00
2019-01-10T20:50:17.815Z,101441.00
2019-01-10T20:52:46.001Z,101450.00
2019-01-10T20:55:33.595Z,101449.00
2019-01-10T20:58:14.306Z,101307.00
2019-01-10T21:01:03.342Z,101291.00
2019-01-10T21:03:32.631Z,101438.00
2019-01-10T21:06:15.619Z,101348.00
2019-01-10T21:08:43.658Z,101443.00
2019-01-10T21:11:12.730Z,101451.00
2019-01-10T21:14:00.247Z,101393.00
2019-01-10T21:16:28.441Z,101451.00
2019-01-10T21:18:56.534Z,101461.00
2019-01-10T21:21:40.504Z,101454.00
2019-01-10T21:24:28.128Z,101449.00
2019-01-10T21:27:08.844Z,101456.00
2019-01-10T21:29:56.662Z,101460.00
2019-01-10T21:32:40.844Z,101454.00
2019-01-10T21:35:27.135Z,101461.00
2019-01-10T21:38:07.413Z,101263.00
2019-01-10T21:40:35.621Z,101447.00
2019-01-10T21:43:16.588Z,101273.00
2019-01-10T21:46:04.407Z,101487.00
2019-01-10T21:48:46.827Z,101396.00
2019-01-10T21:51:14.934Z,101449.00
2019-01-10T21:53:56.490Z,101329.00
2019-01-10T21:56:24.695Z,101445.00
2019-01-10T21:58:52.827Z,101448.00
2019-01-10T22:01:20.836Z,101444.00
2019-01-10T22:04:03.489Z,101341.00
2019-01-10T22:06:51.490Z,101529.00
2019-01-10T22:09:34.223Z,101191.00
2019-01-10T22:12:22.256Z,101293.00
2019-01-10T22:15:03.798Z,101168.00
2019-01-10T22:18:04.156Z,101235.00
2019-01-10T22:20:51.827Z,101306.00
2019-01-10T22:23:32.275Z,101472.00
2019-01-10T22:26:19.855Z,101389.00
2019-01-10T22:29:00.921Z,101437.00
2019-01-10T22:31:48.580Z,101420.00
2019-01-10T22:34:28.955Z,101436.00
2019-01-10T22:37:16.559Z,101341.00
2019-01-10T22:39:44.596Z,101432.00
2019-01-10T22:42:25.890Z,101359.00
2019-01-10T22:44:53.890Z,101422.00
2019-01-10T22:47:22.032Z,101431.00
2019-01-10T22:50:10.825Z,101163.00
2019-01-10T22:52:51.551Z,101149.00
2019-01-10T22:55:39.332Z,101199.00
2019-01-10T22:58:19.899Z,101450.00
2019-01-10T23:01:52.356Z,101267.00
2019-01-10T23:04:34.469Z,101227.00
2019-01-10T23:07:22.688Z,101406.00
2019-01-10T23:10:05.422Z,101412.00
2019-01-10T23:12:45.875Z,101402.00
2019-01-10T23:15:34.527Z,101166.00
2019-01-10T23:18:15.126Z,101150.00
2019-01-10T23:20:43.223Z,101405.00
2019-01-10T23:23:24.264Z,101271.00
2019-01-10T23:25:53.821Z,101402.00
2019-01-10T23:28:38.223Z,101404.00
2019-01-10T23:31:25.697Z,101408.00
2019-01-10T23:34:09.571Z,101333.00
2019-01-10T23:36:56.981Z,101406.00
2019-01-10T23:39:36.005Z,101156.00
2019-01-10T23:42:04.035Z,101394.00
2019-01-10T23:44:32.222Z,101406.00
2019-01-10T23:47:00.140Z,101408.00
2019-01-10T23:49:42.004Z,101544.00
2019-01-10T23:52:30.070Z,101414.00
2019-01-10T23:55:09.625Z,101151.00
2019-01-10T23:57:37.750Z,101422.00
